createdAt,value
2022-08-07T00:01:12.679Z,12.84
2022-08-07T00:03:51.634Z,12.84
2022-08-07T00:06:18.588Z,12.80
2022-08-07T00:08:56.049Z,12.73
2022-08-07T00:11:30.051Z,12.78
2022-08-07T00:13:59.758Z,12.78
2022-08-07T00:16:28.078Z,12.74
2022-08-07T00:18:54.941Z,12.72
2022-08-07T00:21:56.944Z,12.67
2022-08-07T00:24:08.824Z,12.67
2022-08-07T00:26:49.245Z,12.64
2022-08-07T00:29:25.997Z,12.56
2022-08-07T00:32:01.951Z,12.55
2022-08-07T00:34:30.364Z,12.53
2022-08-07T00:36:59.042Z,12.50
2022-08-07T00:39:26.917Z,12.48
2022-08-07T00:42:01.728Z,12.48
2022-08-07T00:44:33.043Z,12.46
2022-08-07T00:46:59.946Z,12.41
2022-08-07T00:50:19.781Z,12.40
2022-08-07T00:52:13.025Z,12.39
2022-08-07T00:54:40.541Z,12.34
2022-08-07T00:57:07.466Z,12.33
2022-08-07T00:59:37.444Z,12.27
2022-08-07T01:02:08.857Z,12.31
2022-08-07T01:04:43.164Z,12.27
2022-08-07T01:07:12.077Z,12.27
2022-08-07T01:10:04.586Z,12.20
2022-08-07T01:12:29.973Z,12.20
2022-08-07T01:15:01.397Z,12.21
2022-08-07T01:17:30.831Z,12.16
2022-08-07T01:20:04.789Z,12.13
2022-08-07T01:22:31.762Z,12.12
2022-08-07T01:25:00.846Z,12.08
2022-08-07T01:27:32.131Z,12.08
2022-08-07T01:29:59.930Z,12.14
2022-08-07T01:32:27.835Z,12.10
2022-08-07T01:34:55.852Z,12.08
2022-08-07T01:37:23.947Z,12.02
2022-08-07T01:39:50.759Z,12.00
2022-08-07T01:42:39.455Z,11.97
2022-08-07T01:45:15.697Z,12.00
2022-08-07T01:48:20.438Z,11.98
2022-08-07T01:50:30.470Z,11.96
2022-08-07T01:52:58.758Z,11.97
2022-08-07T01:55:33.501Z,11.93
2022-08-07T01:58:05.857Z,11.91
2022-08-07T02:00:38.813Z,11.89
2022-08-07T02:03:22.022Z,11.82
2022-08-07T02:05:59.256Z,11.76
2022-08-07T02:08:27.975Z,11.77
2022-08-07T02:10:59.275Z,11.80
2022-08-07T02:13:58.278Z,11.74
2022-08-07T02:16:18.169Z,11.74
2022-08-07T02:18:48.125Z,11.75
2022-08-07T02:21:19.789Z,11.69
2022-08-07T02:23:47.970Z,11.73
2022-08-07T02:26:32.930Z,11.75
2022-08-07T02:29:03.096Z,11.71
2022-08-07T02:31:32.545Z,11.66
2022-08-07T02:34:10.987Z,11.64
2022-08-07T02:36:41.189Z,11.67
2022-08-07T02:39:16.584Z,11.64
2022-08-07T02:41:47.368Z,11.60
2022-08-07T02:44:18.497Z,11.59
2022-08-07T02:46:52.762Z,11.60
2022-08-07T02:49:28.950Z,11.58
2022-08-07T02:52:10.252Z,11.52
2022-08-07T02:54:42.742Z,11.47
2022-08-07T02:57:13.550Z,11.48
2022-08-07T02:59:54.906Z,11.49
2022-08-07T03:02:28.374Z,11.47
2022-08-07T03:04:56.393Z,11.45
2022-08-07T03:07:58.981Z,11.47
2022-08-07T03:10:11.876Z,11.47
2022-08-07T03:12:41.943Z,11.38
2022-08-07T03:15:10.760Z,11.39
2022-08-07T03:17:53.704Z,11.34
2022-08-07T03:20:21.841Z,11.38
2022-08-07T03:22:50.550Z,11.32
2022-08-07T03:25:21.133Z,11.35
2022-08-07T03:27:59.318Z,11.30
2022-08-07T03:30:27.370Z,11.35
2022-08-07T03:32:58.698Z,11.31
2022-08-07T03:35:28.050Z,11.28
2022-08-07T03:38:13.309Z,11.32
2022-08-07T03:40:40.441Z,11.25
2022-08-07T03:43:14.484Z,11.21
2022-08-07T03:45:43.443Z,11.23
2022-08-07T03:48:11.612Z,11.20
2022-08-07T03:50:39.023Z,11.21
2022-08-07T03:53:10.578Z,11.19
2022-08-07T03:55:53.130Z,11.18
2022-08-07T03:58:33.395Z,11.12
2022-08-07T04:01:07.591Z,11.17
2022-08-07T04:03:49.824Z,11.09
2022-08-07T04:06:37.831Z,10.97
2022-08-07T04:09:05.823Z,11.14
2022-08-07T04:12:25.501Z,11.14
2022-08-07T04:14:37.814Z,11.12
2022-08-07T04:17:19.835Z,11.09
2022-08-07T04:19:55.436Z,11.10
2022-08-07T04:22:28.956Z,11.08
2022-08-07T04:24:58.878Z,11.10
2022-08-07T04:27:28.519Z,11.15
2022-08-07T04:30:04.496Z,11.16
2022-08-07T04:32:34.585Z,11.13
2022-08-07T04:35:05.760Z,11.16
2022-08-07T04:38:00.779Z,11.21
2022-08-07T04:40:20.798Z,11.25
2022-08-07T04:42:52.379Z,11.25
2022-08-07T04:45:57.609Z,11.25
2022-08-07T04:48:17.266Z,11.27
2022-08-07T04:50:58.813Z,11.27
2022-08-07T04:54:05.262Z,11.25
2022-08-07T04:58:15.072Z,11.36
2022-08-07T05:00:38.727Z,11.42
2022-08-07T05:04:00.297Z,11.48
2022-08-07T05:06:21.918Z,11.70
2022-08-07T05:09:28.017Z,11.83
2022-08-07T05:12:15.573Z,11.97
2022-08-07T05:15:04.073Z,12.10
2022-08-07T05:17:52.020Z,12.30
2022-08-07T05:20:26.861Z,12.52
2022-08-07T05:22:58.102Z,12.87
2022-08-07T05:26:08.802Z,13.19
2022-08-07T05:28:22.677Z,13.71
2022-08-07T05:30:52.271Z,14.14
2022-08-07T05:33:20.815Z,14.54
2022-08-07T05:35:51.201Z,14.88
2022-08-07T05:39:00.331Z,15.21
2022-08-07T05:41:14.416Z,15.55
2022-08-07T05:44:01.293Z,15.92
2022-08-07T05:46:38.283Z,16.25
2022-08-07T05:49:12.604Z,16.50
2022-08-07T05:51:42.299Z,16.91
2022-08-07T05:54:30.199Z,17.27
2022-08-07T05:56:57.985Z,17.49
2022-08-07T05:59:27.292Z,17.57
2022-08-07T06:01:55.964Z,17.93
2022-08-07T06:04:29.794Z,18.09
2022-08-07T06:07:03.886Z,18.14
2022-08-07T06:09:44.792Z,18.28
2022-08-07T06:12:12.441Z,18.73
2022-08-07T06:14:43.079Z,19.04
2022-08-07T06:17:19.255Z,18.92
2022-08-07T06:20:03.437Z,18.94
2022-08-07T06:22:38.341Z,19.39
2022-08-07T06:25:06.568Z,19.73
2022-08-07T06:27:44.215Z,19.70
2022-08-07T06:30:36.102Z,19.93
2022-08-07T06:33:09.951Z,20.15
2022-08-07T06:35:45.600Z,20.23
2022-08-07T06:38:19.234Z,20.43
2022-08-07T06:40:51.126Z,20.35
2022-08-07T06:43:23.607Z,20.32
2022-08-07T06:45:50.844Z,20.68
2022-08-07T06:48:24.970Z,20.53
2022-08-07T06:50:54.836Z,20.66
2022-08-07T06:55:27.765Z,20.84
2022-08-07T06:56:15.020Z,20.79
2022-08-07T07:00:10.353Z,20.91
2022-08-07T07:01:44.043Z,20.91
2022-08-07T07:04:28.019Z,21.08
2022-08-07T07:07:10.745Z,21.14
2022-08-07T07:09:47.686Z,20.78
2022-08-07T07:12:33.403Z,20.78
2022-08-07T07:15:23.624Z,20.90
2022-08-07T07:18:05.596Z,21.20
2022-08-07T07:20:36.938Z,21.35
2022-08-07T07:24:09.624Z,21.63
2022-08-07T07:26:33.238Z,21.73
2022-08-07T07:29:40.117Z,21.97
2022-08-07T07:31:47.043Z,21.89
2022-08-07T07:34:18.160Z,22.02
2022-08-07T07:36:48.057Z,21.71
2022-08-07T07:39:25.536Z,21.59
2022-08-07T07:42:12.940Z,22.13
2022-08-07T07:44:44.555Z,22.10
2022-08-07T07:47:24.007Z,22.00
2022-08-07T07:50:34.218Z,22.24
2022-08-07T07:52:41.945Z,22.25
2022-08-07T07:55:11.473Z,22.42
2022-08-07T07:57:52.083Z,22.28
2022-08-07T08:00:29.448Z,22.16
2022-08-07T08:03:06.194Z,21.76
2022-08-07T08:05:50.977Z,21.53
2022-08-07T08:08:35.776Z,21.67
2022-08-07T08:11:05.647Z,21.83
2022-08-07T08:13:55.508Z,21.51
2022-08-07T08:16:40.205Z,22.24
2022-08-07T08:19:18.170Z,22.50
2022-08-07T08:22:17.378Z,22.74
2022-08-07T08:25:24.782Z,22.86
2022-08-07T08:27:57.163Z,22.83
2022-08-07T08:30:29.633Z,23.17
2022-08-07T08:33:01.857Z,23.23
2022-08-07T08:35:38.975Z,23.11
2022-08-07T08:38:08.755Z,23.10
2022-08-07T08:40:48.495Z,23.12
2022-08-07T08:43:21.374Z,23.25
2022-08-07T08:46:20.487Z,23.08
2022-08-07T08:49:07.216Z,22.79
2022-08-07T08:52:13.099Z,23.15
2022-08-07T08:54:41.537Z,23.35
2022-08-07T08:57:21.419Z,23.25
2022-08-07T09:00:01.611Z,23.83
2022-08-07T09:02:41.768Z,23.67
2022-08-07T09:05:37.789Z,23.52
2022-08-07T09:08:29.146Z,23.70
2022-08-07T09:11:11.321Z,23.40
2022-08-07T09:13:49.762Z,23.64
2022-08-07T09:16:40.813Z,23.47
2022-08-07T09:19:52.829Z,22.83
2022-08-07T09:24:53.562Z,21.79
2022-08-07T09:25:32.500Z,22.45
2022-08-07T09:30:00.559Z,22.69
2022-08-07T09:31:10.590Z,22.89
2022-08-07T09:33:58.010Z,23.05
2022-08-07T09:36:35.771Z,22.80
2022-08-07T09:39:54.663Z,22.82
2022-08-07T09:42:51.376Z,22.75
2022-08-07T09:47:26.146Z,22.59
2022-08-07T09:48:56.119Z,22.48
2022-08-07T09:52:10.428Z,22.71
2022-08-07T09:54:41.290Z,22.56
2022-08-07T09:57:57.630Z,22.72
2022-08-07T10:00:50.577Z,22.94
2022-08-07T10:04:05.331Z,23.04
2022-08-07T10:06:12.008Z,23.15
2022-08-07T10:09:03.113Z,23.19
2022-08-07T10:12:21.582Z,23.06
2022-08-07T10:15:26.343Z,23.09
2022-08-07T10:18:12.876Z,22.99
2022-08-07T10:21:50.643Z,22.69
2022-08-07T10:24:18.649Z,22.85
2022-08-07T10:27:10.964Z,22.64
2022-08-07T10:29:51.757Z,23.15
2022-08-07T10:32:37.087Z,23.23
2022-08-07T10:35:56.446Z,22.89
2022-08-07T10:38:49.574Z,22.91
2022-08-07T10:41:46.986Z,23.12
2022-08-07T10:44:37.633Z,23.23
2022-08-07T10:47:26.926Z,23.05
2022-08-07T10:50:11.551Z,22.96
2022-08-07T10:52:51.269Z,23.25
2022-08-07T10:55:36.990Z,23.62
2022-08-07T10:58:33.117Z,23.52
2022-08-07T11:01:35.873Z,23.37
2022-08-07T11:04:47.741Z,23.67
2022-08-07T11:07:59.387Z,23.61
2022-08-07T11:10:20.233Z,23.65
2022-08-07T11:13:02.812Z,23.49
2022-08-07T11:15:34.199Z,23.54
2022-08-07T11:18:20.353Z,23.72
2022-08-07T11:20:59.975Z,23.58
2022-08-07T11:23:45.359Z,23.62
2022-08-07T11:26:26.427Z,23.57
2022-08-07T11:29:41.181Z,23.34
2022-08-07T11:32:00.439Z,23.18
2022-08-07T11:34:42.364Z,23.39
2022-08-07T11:37:38.362Z,23.38
2022-08-07T11:40:37.741Z,23.42
2022-08-07T11:43:18.815Z,23.23
2022-08-07T11:46:32.676Z,23.16
2022-08-07T11:50:18.492Z,23.39
2022-08-07T11:52:29.515Z,23.62
2022-08-07T11:56:25.546Z,23.57
2022-08-07T11:58:33.570Z,23.79
2022-08-07T12:01:59.533Z,23.86
2022-08-07T12:04:40.205Z,24.01
2022-08-07T12:07:38.950Z,24.02
2022-08-07T12:10:15.565Z,23.93
2022-08-07T12:12:50.245Z,23.74
2022-08-07T12:15:46.637Z,23.76
2022-08-07T12:18:30.508Z,23.61
2022-08-07T12:21:06.559Z,23.35
2022-08-07T12:24:05.501Z,23.60
2022-08-07T12:26:50.566Z,23.30
2022-08-07T12:29:41.418Z,23.38
2022-08-07T12:32:31.102Z,23.65
2022-08-07T12:34:59.218Z,23.68
2022-08-07T12:38:09.720Z,23.80
2022-08-07T12:40:46.658Z,23.89
2022-08-07T12:43:10.124Z,23.83
2022-08-07T12:45:59.913Z,23.76
2022-08-07T12:48:41.438Z,23.85
2022-08-07T12:51:20.100Z,23.60
2022-08-07T12:54:37.399Z,23.37
2022-08-07T12:57:09.419Z,23.39
2022-08-07T12:59:54.501Z,23.63
2022-08-07T13:02:37.339Z,23.33
2022-08-07T13:06:03.795Z,23.18
2022-08-07T13:08:22.412Z,23.46
2022-08-07T13:11:05.979Z,23.40
2022-08-07T13:13:48.280Z,23.49
2022-08-07T13:16:31.177Z,23.45
2022-08-07T13:19:21.738Z,23.45
2022-08-07T13:22:19.308Z,23.28
2022-08-07T13:25:00.413Z,23.28
2022-08-07T13:28:11.617Z,23.47
2022-08-07T13:30:41.128Z,23.37
2022-08-07T13:34:33.414Z,23.47
2022-08-07T13:36:17.633Z,23.20
2022-08-07T13:39:12.931Z,23.41
2022-08-07T13:41:57.729Z,23.65
2022-08-07T13:44:34.404Z,23.62
2022-08-07T13:47:09.364Z,23.47
2022-08-07T13:50:33.870Z,23.17
2022-08-07T13:52:40.953Z,23.09
2022-08-07T13:55:26.328Z,22.92
2022-08-07T13:58:28.050Z,22.98
2022-08-07T14:01:07.977Z,23.06
2022-08-07T14:04:05.430Z,23.10
2022-08-07T14:06:37.101Z,23.25
2022-08-07T14:09:06.911Z,23.32
2022-08-07T14:11:53.339Z,23.16
2022-08-07T14:14:34.147Z,23.37
2022-08-07T14:17:13.164Z,23.57
2022-08-07T14:20:40.343Z,23.49
2022-08-07T14:22:42.660Z,23.49
2022-08-07T14:25:13.493Z,23.62
2022-08-07T14:28:12.520Z,23.49
2022-08-07T14:30:36.671Z,23.48
2022-08-07T14:33:08.841Z,23.40
2022-08-07T14:35:45.786Z,23.46
2022-08-07T14:38:26.793Z,23.29
2022-08-07T14:41:04.988Z,23.18
2022-08-07T14:43:57.646Z,23.27
2022-08-07T14:46:31.160Z,23.30
2022-08-07T14:49:55.771Z,23.27
2022-08-07T14:54:42.871Z,22.67
2022-08-07T14:57:19.525Z,22.57
2022-08-07T15:00:06.057Z,22.75
2022-08-07T15:05:23.508Z,22.95
2022-08-07T15:07:52.305Z,22.83
2022-08-07T15:10:26.300Z,22.97
2022-08-07T15:12:59.716Z,22.79
2022-08-07T15:21:59.548Z,22.74
2022-08-07T15:27:22.300Z,22.36
2022-08-07T15:30:08.408Z,22.42
2022-08-07T15:32:51.064Z,22.30
2022-08-07T15:36:01.844Z,22.37
2022-08-07T15:38:30.532Z,22.34
2022-08-07T15:44:05.048Z,22.14
2022-08-07T15:46:38.419Z,22.03
2022-08-07T15:49:12.465Z,21.85
2022-08-07T15:54:34.158Z,21.76
2022-08-07T15:57:02.824Z,21.90
2022-08-07T15:59:39.972Z,21.93
2022-08-07T16:02:22.339Z,21.76
2022-08-07T16:04:57.828Z,21.73
2022-08-07T16:08:28.995Z,21.62
2022-08-07T16:10:20.716Z,21.58
2022-08-07T16:13:01.340Z,21.59
2022-08-07T16:15:57.284Z,21.54
2022-08-07T16:19:14.799Z,21.40
2022-08-07T16:22:08.745Z,21.46
2022-08-07T16:25:04.992Z,21.53
2022-08-07T16:28:06.289Z,21.53
2022-08-07T16:30:50.030Z,21.59
2022-08-07T16:34:03.123Z,21.67
2022-08-07T16:36:32.285Z,21.64
2022-08-07T16:39:33.854Z,21.44
2022-08-07T16:42:41.552Z,21.41
2022-08-07T16:46:33.694Z,21.29
2022-08-07T16:49:04.360Z,21.29
2022-08-07T16:52:48.692Z,21.18
2022-08-07T16:55:17.186Z,21.14
2022-08-07T16:58:08.001Z,21.03
2022-08-07T17:00:55.107Z,20.91
2022-08-07T17:03:58.163Z,20.91
2022-08-07T17:06:46.477Z,21.13
2022-08-07T17:10:06.648Z,20.99
2022-08-07T17:12:44.034Z,20.89
2022-08-07T17:15:15.452Z,20.85
2022-08-07T17:17:48.238Z,20.82
2022-08-07T17:20:35.512Z,20.71
2022-08-07T17:23:16.918Z,20.69
2022-08-07T17:26:02.266Z,20.51
2022-08-07T17:28:35.471Z,20.36
2022-08-07T17:31:20.874Z,20.20
2022-08-07T17:34:18.028Z,20.07
2022-08-07T17:36:59.803Z,20.00
2022-08-07T17:40:03.151Z,19.89
2022-08-07T17:42:59.203Z,19.89
2022-08-07T17:45:35.252Z,19.93
2022-08-07T17:48:31.005Z,20.05
2022-08-07T17:51:23.145Z,20.18
2022-08-07T17:54:06.472Z,20.25
2022-08-07T17:57:18.524Z,20.24
2022-08-07T17:59:52.255Z,20.23
2022-08-07T18:02:56.543Z,20.27
2022-08-07T18:06:01.499Z,20.45
2022-08-07T18:08:25.581Z,20.36
2022-08-07T18:12:16.110Z,20.22
2022-08-07T18:14:24.156Z,20.22
2022-08-07T18:17:07.478Z,20.10
2022-08-07T18:21:08.886Z,20.07
2022-08-07T18:22:43.687Z,19.96
2022-08-07T18:25:39.350Z,19.84
2022-08-07T18:28:36.030Z,19.72
2022-08-07T18:31:50.254Z,19.61
2022-08-07T18:35:00.565Z,19.50
2022-08-07T18:38:56.459Z,19.38
2022-08-07T18:40:57.685Z,19.29
2022-08-07T18:43:48.868Z,19.24
2022-08-07T18:46:26.653Z,19.14
2022-08-07T18:50:30.027Z,19.18
2022-08-07T18:52:38.237Z,19.03
2022-08-07T18:55:41.769Z,18.90
2022-08-07T18:58:22.398Z,18.82
2022-08-07T19:02:17.001Z,18.75
2022-08-07T19:04:09.530Z,18.64
2022-08-07T19:06:55.110Z,18.62
2022-08-07T19:09:55.577Z,18.58
2022-08-07T19:12:53.459Z,18.45
2022-08-07T19:16:05.330Z,18.35
2022-08-07T19:18:35.215Z,18.27
2022-08-07T19:21:43.945Z,18.18
2022-08-07T19:24:46.321Z,18.02
2022-08-07T19:28:57.315Z,17.83
2022-08-07T19:31:00.909Z,17.87
2022-08-07T19:33:10.122Z,17.78
2022-08-07T19:35:42.491Z,17.70
2022-08-07T19:38:17.038Z,17.62
2022-08-07T19:40:49.375Z,17.57
2022-08-07T19:43:43.366Z,17.44
2022-08-07T19:46:22.513Z,17.40
2022-08-07T19:49:02.580Z,17.40
2022-08-07T19:51:53.436Z,17.40
2022-08-07T19:54:35.069Z,17.37
2022-08-07T19:57:59.983Z,17.29
2022-08-07T20:00:02.097Z,17.23
2022-08-07T20:02:34.497Z,17.19
2022-08-07T20:05:07.964Z,17.19
2022-08-07T20:07:47.480Z,17.14
2022-08-07T20:10:35.275Z,17.14
2022-08-07T20:13:23.663Z,17.09
2022-08-07T20:15:57.656Z,16.99
2022-08-07T20:18:33.005Z,16.99
2022-08-07T20:21:03.278Z,16.96
2022-08-07T20:23:57.696Z,16.91
2022-08-07T20:26:44.719Z,16.86
2022-08-07T20:29:46.753Z,16.87
2022-08-07T20:32:05.690Z,16.79
2022-08-07T20:34:50.851Z,16.75
2022-08-07T20:37:25.148Z,16.83
2022-08-07T20:40:03.685Z,16.88
2022-08-07T20:42:32.442Z,16.90
2022-08-07T20:45:01.259Z,16.87
2022-08-07T20:47:56.404Z,16.89
2022-08-07T20:50:20.686Z,16.88
2022-08-07T20:52:51.600Z,16.85
2022-08-07T20:55:23.818Z,16.84
2022-08-07T20:58:02.578Z,16.78
2022-08-07T21:00:47.208Z,16.71
2022-08-07T21:03:18.891Z,16.70
2022-08-07T21:05:56.539Z,16.69
2022-08-07T21:08:37.191Z,16.66
2022-08-07T21:11:10.483Z,16.64
2022-08-07T21:13:57.226Z,16.65
2022-08-07T21:16:33.275Z,16.64
2022-08-07T21:19:00.387Z,16.57
2022-08-07T21:21:33.233Z,16.42
2022-08-07T21:24:47.876Z,16.42
2022-08-07T21:27:18.551Z,16.38
2022-08-07T21:29:56.957Z,16.22
2022-08-07T21:32:48.611Z,16.24
2022-08-07T21:35:34.586Z,16.22
2022-08-07T21:38:44.460Z,16.14
2022-08-07T21:41:38.272Z,16.10
2022-08-07T21:44:54.022Z,16.01
2022-08-07T21:47:25.828Z,15.94
2022-08-07T21:50:08.325Z,15.89
2022-08-07T21:52:54.729Z,15.86
2022-08-07T21:55:28.242Z,15.77
2022-08-07T21:58:29.989Z,15.74
2022-08-07T22:02:10.420Z,15.73
2022-08-07T22:04:51.215Z,15.56
2022-08-07T22:07:22.006Z,15.67
2022-08-07T22:09:55.399Z,15.62
2022-08-07T22:12:32.361Z,15.53
2022-08-07T22:16:43.878Z,15.48
2022-08-07T22:18:28.537Z,15.40
2022-08-07T22:21:05.739Z,15.39
2022-08-07T22:23:47.413Z,15.32
2022-08-07T22:26:38.045Z,15.30
2022-08-07T22:29:37.936Z,15.29
2022-08-07T22:32:35.646Z,15.22
2022-08-07T22:35:04.864Z,15.14
2022-08-07T22:38:25.815Z,15.09
2022-08-07T22:40:59.983Z,15.09
2022-08-07T22:43:39.269Z,15.09
2022-08-07T22:47:04.221Z,15.08
2022-08-07T22:49:54.322Z,15.02
2022-08-07T22:52:36.786Z,14.98
2022-08-07T22:55:30.081Z,14.98
2022-08-07T22:58:37.739Z,14.94
2022-08-07T23:01:30.619Z,14.90
2022-08-07T23:04:32.253Z,14.87
2022-08-07T23:07:33.659Z,14.86
2022-08-07T23:10:41.978Z,14.80
2022-08-07T23:13:21.135Z,14.85
2022-08-07T23:16:44.421Z,14.84
2022-08-07T23:19:52.094Z,14.76
2022-08-07T23:22:56.797Z,14.71
2022-08-07T23:25:47.797Z,14.72
2022-08-07T23:28:54.389Z,14.65
2022-08-07T23:32:50.162Z,14.62
2022-08-07T23:34:51.052Z,14.58
2022-08-07T23:37:22.734Z,14.54
2022-08-07T23:40:11.161Z,14.49
2022-08-07T23:43:03.407Z,14.48
2022-08-07T23:46:10.357Z,14.44
2022-08-07T23:49:50.596Z,14.40
2022-08-07T23:52:58.878Z,14.33
2022-08-07T23:55:52.436Z,14.28
2022-08-07T23:58:54.754Z,14.24
